createdAt,value
2019-05-02T00:01:25.001Z,90.88
2019-05-02T00:03:55.994Z,91.01
2019-05-02T00:06:27.459Z,91.03
2019-05-02T00:09:18.197Z,91.45
2019-05-02T00:11:58.586Z,90.79
2019-05-02T00:14:21.919Z,90.92
2019-05-02T00:16:52.819Z,90.68
2019-05-02T00:19:23.882Z,90.59
2019-05-02T00:22:17.122Z,90.28
2019-05-02T00:24:46.178Z,90.91
2019-05-02T00:27:17.232Z,90.89
2019-05-02T00:29:48.048Z,91.40
2019-05-02T00:32:22.457Z,91.62
2019-05-02T00:34:51.393Z,91.31
2019-05-02T00:37:24.605Z,90.60
2019-05-02T00:39:54.778Z,90.31
2019-05-02T00:42:25.563Z,90.34
2019-05-02T00:44:57.013Z,90.32
2019-05-02T00:47:42.313Z,90.11
2019-05-02T00:50:13.843Z,89.91
2019-05-02T00:52:44.588Z,89.41
2019-05-02T00:55:15.699Z,89.25
2019-05-02T00:57:50.791Z,89.10
2019-05-02T01:00:19.832Z,89.66
2019-05-02T01:02:56.928Z,89.98
2019-05-02T01:05:46.753Z,90.47
2019-05-02T01:08:17.421Z,91.06
2019-05-02T01:10:52.132Z,91.58
2019-05-02T01:13:20.736Z,92.82
2019-05-02T01:15:51.484Z,93.97
2019-05-02T01:18:24.418Z,94.08
2019-05-02T01:20:58.198Z,94.29
2019-05-02T01:23:29.501Z,94.70
2019-05-02T01:26:00.447Z,94.61
2019-05-02T01:28:54.282Z,94.69
2019-05-02T01:31:29.266Z,94.39
2019-05-02T01:34:17.979Z,94.35
2019-05-02T01:36:57.186Z,94.17
2019-05-02T01:39:27.997Z,93.96
2019-05-02T01:41:59.968Z,94.36
2019-05-02T01:44:36.146Z,94.39
2019-05-02T01:47:03.885Z,93.76
2019-05-02T01:49:34.516Z,93.30
2019-05-02T01:52:05.316Z,93.27
2019-05-02T01:54:36.253Z,93.13
2019-05-02T01:57:08.706Z,92.72
2019-05-02T01:59:39.508Z,92.57
2019-05-02T02:02:10.293Z,91.61
2019-05-02T02:04:41.108Z,91.89
2019-05-02T02:07:14.968Z,92.24
2019-05-02T02:09:45.841Z,92.18
2019-05-02T02:12:16.732Z,92.07
2019-05-02T02:14:48.166Z,92.13
2019-05-02T02:17:19.950Z,92.43
2019-05-02T02:19:55.500Z,92.91
2019-05-02T02:22:41.656Z,93.20
2019-05-02T02:25:36.262Z,93.75
2019-05-02T02:28:05.750Z,93.68
2019-05-02T02:30:36.579Z,94.06
2019-05-02T02:33:09.472Z,94.51
2019-05-02T02:35:49.582Z,94.54
2019-05-02T02:38:12.577Z,94.90
2019-05-02T02:40:43.397Z,95.28
2019-05-02T02:43:32.891Z,95.52
2019-05-02T02:46:00.331Z,95.85
2019-05-02T02:48:33.897Z,96.49
2019-05-02T02:51:04.354Z,96.62
2019-05-02T02:53:35.387Z,96.57
2019-05-02T02:56:08.557Z,96.96
2019-05-02T02:58:45.782Z,97.57
2019-05-02T03:01:12.066Z,98.05
2019-05-02T03:03:43.138Z,98.22
2019-05-02T03:06:13.989Z,98.71
2019-05-02T03:08:48.569Z,98.83
2019-05-02T03:11:23.843Z,98.94
2019-05-02T03:14:06.093Z,99.01
2019-05-02T03:16:32.357Z,99.04
2019-05-02T03:19:03.281Z,99.46
2019-05-02T03:21:34.228Z,99.66
2019-05-02T03:24:05.756Z,99.62
2019-05-02T03:26:36.776Z,99.58
2019-05-02T03:29:07.584Z,99.57
2019-05-02T03:31:38.703Z,99.66
2019-05-02T03:34:09.440Z,99.77
2019-05-02T03:36:41.550Z,99.66
2019-05-02T03:39:14.912Z,99.52
2019-05-02T03:41:45.061Z,99.64
2019-05-02T03:44:24.818Z,99.90
2019-05-02T03:46:54.246Z,99.78
2019-05-02T03:49:21.389Z,99.77
2019-05-02T03:51:55.909Z,99.86
2019-05-02T03:54:24.717Z,99.69
2019-05-02T03:56:55.430Z,99.64
2019-05-02T03:59:37.389Z,99.60
2019-05-02T04:01:59.524Z,99.14
2019-05-02T04:04:31.231Z,99.20
2019-05-02T04:07:03.489Z,99.09
2019-05-02T04:09:42.584Z,98.95
2019-05-02T04:12:18.890Z,98.48
2019-05-02T04:14:42.418Z,98.30
2019-05-02T04:17:13.353Z,98.20
2019-05-02T04:19:44.278Z,98.15
2019-05-02T04:22:16.127Z,97.63
2019-05-02T04:24:54.642Z,97.27
2019-05-02T04:27:19.756Z,96.85
2019-05-02T04:29:50.708Z,95.60
2019-05-02T04:32:21.526Z,94.40
2019-05-02T04:34:55.617Z,92.59
2019-05-02T04:37:25.203Z,90.58
2019-05-02T04:39:59.082Z,87.33
2019-05-02T04:42:29.374Z,84.19
2019-05-02T04:45:20.669Z,80.93
2019-05-02T04:47:33.004Z,79.21
2019-05-02T04:50:07.659Z,78.37
2019-05-02T04:52:38.390Z,77.11
2019-05-02T04:55:20.031Z,76.55
2019-05-02T04:57:47.181Z,75.29
2019-05-02T05:00:35.599Z,74.23
2019-05-02T05:03:15.294Z,72.99
2019-05-02T05:05:40.329Z,72.01
2019-05-02T05:08:11.473Z,70.18
2019-05-02T05:10:45.059Z,69.83
2019-05-02T05:13:19.740Z,68.41
2019-05-02T05:15:51.199Z,68.94
2019-05-02T05:18:19.933Z,69.11
2019-05-02T05:20:54.083Z,68.62
2019-05-02T05:23:41.972Z,67.33
2019-05-02T05:26:12.746Z,67.15
2019-05-02T05:28:44.511Z,66.54
2019-05-02T05:31:23.410Z,65.34
2019-05-02T05:33:48.313Z,64.33
2019-05-02T05:36:20.067Z,63.73
2019-05-02T05:38:52.017Z,62.77
2019-05-02T05:41:23.331Z,62.28
2019-05-02T05:43:54.387Z,62.71
2019-05-02T05:46:25.228Z,63.27
2019-05-02T05:48:57.823Z,62.27
2019-05-02T05:51:28.558Z,62.37
2019-05-02T05:54:03.017Z,62.44
2019-05-02T05:56:32.525Z,61.67
2019-05-02T05:59:04.474Z,61.15
2019-05-02T06:01:36.427Z,59.76
2019-05-02T06:04:08.704Z,59.18
2019-05-02T06:06:39.450Z,60.51
2019-05-02T06:09:13.762Z,59.52
2019-05-02T06:11:43.477Z,59.44
2019-05-02T06:14:14.309Z,58.78
2019-05-02T06:16:46.660Z,57.49
2019-05-02T06:19:19.133Z,57.79
2019-05-02T06:21:50.093Z,57.67
2019-05-02T06:24:20.992Z,55.47
2019-05-02T06:26:51.992Z,55.75
2019-05-02T06:29:22.868Z,54.63
2019-05-02T06:31:53.797Z,55.66
2019-05-02T06:34:24.816Z,55.08
2019-05-02T06:36:55.754Z,54.48
2019-05-02T06:39:27.162Z,53.79
2019-05-02T06:41:59.195Z,53.21
2019-05-02T06:44:30.083Z,52.11
2019-05-02T06:47:04.240Z,50.41
2019-05-02T06:49:33.948Z,51.07
2019-05-02T06:52:05.047Z,48.43
2019-05-02T06:54:35.789Z,48.86
2019-05-02T06:57:06.715Z,50.07
2019-05-02T06:59:37.582Z,49.60
2019-05-02T07:02:08.747Z,49.27
2019-05-02T07:04:39.533Z,47.61
2019-05-02T07:07:13.185Z,46.23
2019-05-02T07:09:44.413Z,46.76
2019-05-02T07:12:18.538Z,45.61
2019-05-02T07:14:56.156Z,45.20
2019-05-02T07:17:42.194Z,45.10
2019-05-02T07:20:14.158Z,45.45
2019-05-02T07:22:45.674Z,45.58
2019-05-02T07:25:19.190Z,45.43
2019-05-02T07:27:51.631Z,44.88
2019-05-02T07:30:23.371Z,43.15
2019-05-02T07:32:56.403Z,43.36
2019-05-02T07:35:28.038Z,43.26
2019-05-02T07:38:05.217Z,41.06
2019-05-02T07:40:41.648Z,41.79
2019-05-02T07:43:13.476Z,40.56
2019-05-02T07:45:46.383Z,39.87
2019-05-02T07:48:18.963Z,40.72
2019-05-02T07:50:50.074Z,41.26
2019-05-02T07:53:21.026Z,39.07
2019-05-02T07:55:52.033Z,38.32
2019-05-02T07:58:23.088Z,38.90
2019-05-02T08:00:53.967Z,37.69
2019-05-02T08:03:29.477Z,37.02
2019-05-02T08:05:58.623Z,38.23
2019-05-02T08:08:31.482Z,37.22
2019-05-02T08:11:03.286Z,35.67
2019-05-02T08:13:34.288Z,36.99
2019-05-02T08:16:05.162Z,36.05
2019-05-02T08:18:36.223Z,37.82
2019-05-02T08:21:10.661Z,37.56
2019-05-02T08:23:42.998Z,37.20
2019-05-02T08:26:16.387Z,36.22
2019-05-02T08:28:58.396Z,36.34
2019-05-02T08:31:30.341Z,35.55
2019-05-02T08:34:05.237Z,33.41
2019-05-02T08:36:35.299Z,33.06
2019-05-02T08:39:07.998Z,33.15
2019-05-02T08:41:38.857Z,33.85
2019-05-02T08:44:09.592Z,34.34
2019-05-02T08:46:40.359Z,34.57
2019-05-02T08:49:18.716Z,36.02
2019-05-02T08:51:46.943Z,36.66
2019-05-02T08:54:17.728Z,35.18
2019-05-02T08:56:53.221Z,34.28
2019-05-02T08:59:24.458Z,33.77
2019-05-02T09:01:56.190Z,34.44
2019-05-02T09:04:29.036Z,32.65
2019-05-02T09:07:01.579Z,33.44
2019-05-02T09:09:32.569Z,33.39
2019-05-02T09:12:12.191Z,34.38
2019-05-02T09:14:36.404Z,33.11
2019-05-02T09:17:13.513Z,33.54
2019-05-02T09:19:40.155Z,32.79
2019-05-02T09:22:13.309Z,36.12
2019-05-02T09:24:44.970Z,36.05
2019-05-02T09:27:17.140Z,33.48
2019-05-02T09:29:48.337Z,34.25
2019-05-02T09:32:24.874Z,35.61
2019-05-02T09:34:56.657Z,34.84
2019-05-02T09:37:25.402Z,35.25
2019-05-02T09:39:56.513Z,36.61
2019-05-02T09:42:27.606Z,35.17
2019-05-02T09:44:59.014Z,35.45
2019-05-02T09:47:33.217Z,35.82
2019-05-02T09:50:10.121Z,36.85
2019-05-02T09:52:44.162Z,37.33
2019-05-02T09:55:15.786Z,36.53
2019-05-02T09:57:46.622Z,36.43
2019-05-02T10:00:36.143Z,36.16
2019-05-02T10:03:07.098Z,36.66
2019-05-02T10:05:37.926Z,35.72
2019-05-02T10:08:13.062Z,34.99
2019-05-02T10:10:45.876Z,36.47
2019-05-02T10:13:14.847Z,38.13
2019-05-02T10:15:46.477Z,35.64
2019-05-02T10:18:24.080Z,35.76
2019-05-02T10:20:52.267Z,35.65
2019-05-02T10:23:23.609Z,35.66
2019-05-02T10:25:55.183Z,34.44
2019-05-02T10:28:26.949Z,36.19
2019-05-02T10:31:02.099Z,37.90
2019-05-02T10:33:37.443Z,39.14
2019-05-02T10:36:05.963Z,41.28
2019-05-02T10:38:37.110Z,41.10
2019-05-02T10:41:08.488Z,40.51
2019-05-02T10:43:39.892Z,41.53
2019-05-02T10:46:23.055Z,40.11
2019-05-02T10:49:01.940Z,39.96
2019-05-02T10:51:36.461Z,39.65
2019-05-02T10:54:09.118Z,39.32
2019-05-02T10:56:39.996Z,40.15
2019-05-02T10:59:11.786Z,38.75
2019-05-02T11:02:02.538Z,40.01
2019-05-02T11:04:36.489Z,37.02
2019-05-02T11:07:07.464Z,35.22
2019-05-02T11:09:38.323Z,38.35
2019-05-02T11:12:11.868Z,36.18
2019-05-02T11:14:55.573Z,36.62
2019-05-02T11:17:32.358Z,36.01
2019-05-02T11:20:05.674Z,35.92
2019-05-02T11:22:36.595Z,35.44
2019-05-02T11:25:08.117Z,37.51
2019-05-02T11:27:39.585Z,33.88
2019-05-02T11:30:16.884Z,34.89
2019-05-02T11:32:46.027Z,36.00
2019-05-02T11:35:16.975Z,37.42
2019-05-02T11:37:47.977Z,39.04
2019-05-02T11:40:19.233Z,37.41
2019-05-02T11:42:52.062Z,37.62
2019-05-02T11:45:22.742Z,37.85
2019-05-02T11:47:56.012Z,36.64
2019-05-02T11:50:26.621Z,36.29
2019-05-02T11:52:58.789Z,36.91
2019-05-02T11:55:31.813Z,38.68
2019-05-02T11:58:07.819Z,38.26
2019-05-02T12:00:35.044Z,38.68
2019-05-02T12:03:22.767Z,38.39
2019-05-02T12:05:53.643Z,39.11
2019-05-02T12:08:24.598Z,40.08
2019-05-02T12:10:55.539Z,37.22
2019-05-02T12:13:26.343Z,38.43
2019-05-02T12:15:57.242Z,38.96
2019-05-02T12:18:28.127Z,38.54
2019-05-02T12:20:59.368Z,38.57
2019-05-02T12:23:32.056Z,38.26
2019-05-02T12:26:03.634Z,39.46
2019-05-02T12:28:34.599Z,38.99
2019-05-02T12:31:08.077Z,39.13
2019-05-02T12:33:42.645Z,40.08
2019-05-02T12:36:14.383Z,39.80
2019-05-02T12:38:45.203Z,39.24
2019-05-02T12:41:21.994Z,37.63
2019-05-02T12:43:53.961Z,38.58
2019-05-02T12:46:28.528Z,38.04
2019-05-02T12:49:00.082Z,37.56
2019-05-02T12:51:32.588Z,37.94
2019-05-02T12:54:03.254Z,38.88
2019-05-02T12:56:35.093Z,38.73
2019-05-02T12:59:07.169Z,40.13
2019-05-02T13:01:37.981Z,40.11
2019-05-02T13:04:12.433Z,39.03
2019-05-02T13:06:45.413Z,39.61
2019-05-02T13:09:16.818Z,38.78
2019-05-02T13:11:53.263Z,39.03
2019-05-02T13:14:27.274Z,39.60
2019-05-02T13:17:03.857Z,40.57
2019-05-02T13:19:40.181Z,39.30
2019-05-02T13:22:24.520Z,39.46
2019-05-02T13:25:02.306Z,38.99
2019-05-02T13:27:43.379Z,39.06
2019-05-02T13:30:09.169Z,39.78
2019-05-02T13:32:42.742Z,39.90
2019-05-02T13:35:34.420Z,38.77
2019-05-02T13:38:09.149Z,40.73
2019-05-02T13:40:44.416Z,38.49
2019-05-02T13:43:16.100Z,39.74
2019-05-02T13:46:02.229Z,39.32
2019-05-02T13:48:34.147Z,39.45
2019-05-02T13:51:05.366Z,38.32
2019-05-02T13:53:40.082Z,39.97
2019-05-02T13:56:29.733Z,40.32
2019-05-02T13:59:02.603Z,39.75
2019-05-02T14:01:34.013Z,41.20
2019-05-02T14:04:10.152Z,39.27
2019-05-02T14:06:38.110Z,38.57
2019-05-02T14:09:32.361Z,41.21
2019-05-02T14:12:08.734Z,40.25
2019-05-02T14:14:39.297Z,40.20
2019-05-02T14:17:11.715Z,40.44
2019-05-02T14:19:43.859Z,40.05
2019-05-02T14:22:15.607Z,39.48
2019-05-02T14:24:46.957Z,39.92
2019-05-02T14:27:22.216Z,41.35
2019-05-02T14:29:56.449Z,40.03
2019-05-02T14:32:27.908Z,41.23
2019-05-02T14:35:18.719Z,40.04
2019-05-02T14:38:09.528Z,40.87
2019-05-02T14:41:03.023Z,39.93
2019-05-02T14:43:54.025Z,40.79
2019-05-02T14:46:34.220Z,41.87
2019-05-02T14:49:02.730Z,40.72
2019-05-02T14:51:36.603Z,40.06
2019-05-02T14:54:08.613Z,40.25
2019-05-02T14:56:47.781Z,39.88
2019-05-02T14:59:20.006Z,40.29
2019-05-02T15:01:58.017Z,39.80
2019-05-02T15:04:27.382Z,40.24
2019-05-02T15:06:58.121Z,40.26
2019-05-02T15:09:29.013Z,40.62
2019-05-02T15:12:02.412Z,40.63
2019-05-02T15:14:35.503Z,40.83
2019-05-02T15:17:07.813Z,40.54
2019-05-02T15:19:38.664Z,40.57
2019-05-02T15:22:09.418Z,41.55
2019-05-02T15:24:42.246Z,39.89
2019-05-02T15:27:17.502Z,40.41
2019-05-02T15:29:45.695Z,40.36
2019-05-02T15:32:25.557Z,40.82
2019-05-02T15:35:10.338Z,41.16
2019-05-02T15:37:41.980Z,41.00
2019-05-02T15:42:56.718Z,40.91
2019-05-02T15:45:25.498Z,40.94
2019-05-02T15:47:56.423Z,40.79
2019-05-02T15:50:27.551Z,41.02
2019-05-02T15:53:09.741Z,40.90
2019-05-02T15:55:39.360Z,42.05
2019-05-02T15:58:25.934Z,40.78
2019-05-02T16:01:04.952Z,41.07
2019-05-02T16:03:54.688Z,41.93
2019-05-02T16:06:30.808Z,40.83
2019-05-02T16:08:58.133Z,41.77
2019-05-02T16:11:28.979Z,40.84
2019-05-02T16:13:59.818Z,42.00
2019-05-02T16:16:32.052Z,42.38
2019-05-02T16:19:03.203Z,41.75
2019-05-02T16:21:43.245Z,42.50
2019-05-02T16:24:33.019Z,41.41
2019-05-02T16:27:03.893Z,41.75
2019-05-02T16:29:34.694Z,41.92
2019-05-02T16:32:24.673Z,42.49
2019-05-02T16:34:58.113Z,42.66
2019-05-02T16:37:28.933Z,42.58
2019-05-02T16:39:59.898Z,42.48
2019-05-02T16:42:32.698Z,41.23
2019-05-02T16:45:03.323Z,42.94
2019-05-02T16:47:34.254Z,42.54
2019-05-02T16:50:08.973Z,42.64
2019-05-02T16:52:43.804Z,42.02
2019-05-02T16:55:21.067Z,43.66
2019-05-02T16:57:47.258Z,43.38
2019-05-02T17:00:22.774Z,42.76
2019-05-02T17:02:54.005Z,44.36
2019-05-02T17:05:24.792Z,44.44
2019-05-02T17:08:18.928Z,45.46
2019-05-02T17:10:53.746Z,45.21
2019-05-02T17:13:27.584Z,45.81
2019-05-02T17:15:56.348Z,46.24
2019-05-02T17:18:27.268Z,45.63
2019-05-02T17:20:58.218Z,46.70
2019-05-02T17:23:29.233Z,47.29
2019-05-02T17:26:01.582Z,46.78
2019-05-02T17:28:32.564Z,47.48
2019-05-02T17:31:03.465Z,47.56
2019-05-02T17:33:34.662Z,47.56
2019-05-02T17:36:05.903Z,47.58
2019-05-02T17:38:36.553Z,47.59
2019-05-02T17:41:07.987Z,48.30
2019-05-02T17:43:42.233Z,48.89
2019-05-02T17:46:18.354Z,49.97
2019-05-02T17:48:47.640Z,49.38
2019-05-02T17:51:37.886Z,50.53
2019-05-02T17:54:12.000Z,51.17
2019-05-02T17:56:44.103Z,52.07
2019-05-02T17:59:16.972Z,52.35
2019-05-02T18:01:50.238Z,53.09
2019-05-02T18:04:22.603Z,53.18
2019-05-02T18:06:55.226Z,53.25
2019-05-02T18:09:31.616Z,54.28
2019-05-02T18:12:01.574Z,54.78
2019-05-02T18:14:33.404Z,55.05
2019-05-02T18:17:04.672Z,55.67
2019-05-02T18:19:36.195Z,55.96
2019-05-02T18:22:21.084Z,55.18
2019-05-02T18:24:46.401Z,55.64
2019-05-02T18:27:22.214Z,55.29
2019-05-02T18:29:53.245Z,55.77
2019-05-02T18:32:26.086Z,55.97
2019-05-02T18:35:01.285Z,55.48
2019-05-02T18:37:29.238Z,54.71
2019-05-02T18:40:00.053Z,55.01
2019-05-02T18:42:31.799Z,54.89
2019-05-02T18:45:02.760Z,53.86
2019-05-02T18:47:34.288Z,54.41
2019-05-02T18:50:06.205Z,54.60
2019-05-02T18:52:43.205Z,54.88
2019-05-02T18:55:17.143Z,54.69
2019-05-02T18:57:47.968Z,55.06
2019-05-02T19:00:19.778Z,55.97
2019-05-02T19:02:54.628Z,57.12
2019-05-02T19:05:26.704Z,57.56
2019-05-02T19:07:58.578Z,57.82
2019-05-02T19:10:32.206Z,57.94
2019-05-02T19:13:06.069Z,57.61
2019-05-02T19:15:39.709Z,58.25
2019-05-02T19:18:17.727Z,58.43
2019-05-02T19:21:04.560Z,58.19
2019-05-02T19:23:42.317Z,58.19
2019-05-02T19:26:15.420Z,58.43
2019-05-02T19:29:08.619Z,58.40
2019-05-02T19:31:47.257Z,58.64
2019-05-02T19:34:22.872Z,60.38
2019-05-02T19:36:57.812Z,61.13
2019-05-02T19:39:33.676Z,60.58
2019-05-02T19:42:06.642Z,60.42
2019-05-02T19:44:42.229Z,60.95
2019-05-02T19:47:22.959Z,61.00
2019-05-02T19:49:54.984Z,61.16
2019-05-02T19:52:40.506Z,61.32
2019-05-02T19:55:19.424Z,61.08
2019-05-02T19:57:44.613Z,61.70
2019-05-02T20:00:22.636Z,61.74
2019-05-02T20:02:53.778Z,62.54
2019-05-02T20:05:26.373Z,64.29
2019-05-02T20:07:58.965Z,63.62
2019-05-02T20:10:31.917Z,64.50
2019-05-02T20:13:12.786Z,66.10
2019-05-02T20:15:49.720Z,66.33
2019-05-02T20:18:22.667Z,67.70
2019-05-02T20:21:23.407Z,69.23
2019-05-02T20:23:47.016Z,70.37
2019-05-02T20:26:21.981Z,71.46
2019-05-02T20:28:56.987Z,71.76
2019-05-02T20:31:28.851Z,72.35
2019-05-02T20:34:03.297Z,72.71
2019-05-02T20:36:34.343Z,73.62
2019-05-02T20:39:07.708Z,74.41
2019-05-02T20:41:42.100Z,75.07
2019-05-02T20:44:13.083Z,75.77
2019-05-02T20:46:46.155Z,75.98
2019-05-02T20:49:20.411Z,76.48
2019-05-02T20:51:51.930Z,77.69
2019-05-02T20:54:24.425Z,78.87
2019-05-02T20:56:55.653Z,80.57
2019-05-02T20:59:26.677Z,80.78
2019-05-02T21:02:08.341Z,81.05
2019-05-02T21:04:39.288Z,81.92
2019-05-02T21:07:17.564Z,83.10
2019-05-02T21:10:07.149Z,84.47
2019-05-02T21:12:37.880Z,85.10
2019-05-02T21:15:09.562Z,86.04
2019-05-02T21:17:42.194Z,86.28
2019-05-02T21:20:15.589Z,86.31
2019-05-02T21:22:46.972Z,87.48
2019-05-02T21:25:17.611Z,88.08
2019-05-02T21:27:49.065Z,88.26
2019-05-02T21:30:27.258Z,88.91
2019-05-02T21:32:58.931Z,89.47
2019-05-02T21:35:31.925Z,88.78
2019-05-02T21:38:02.713Z,88.43
2019-05-02T21:40:33.632Z,88.43
2019-05-02T21:43:04.388Z,88.55
2019-05-02T21:45:35.128Z,89.19
2019-05-02T21:48:06.113Z,89.55
2019-05-02T21:50:43.553Z,89.61
2019-05-02T21:53:22.240Z,89.40
2019-05-02T21:56:09.688Z,89.44
2019-05-02T21:58:42.761Z,89.05
2019-05-02T22:01:15.048Z,89.46
2019-05-02T22:03:46.352Z,89.59
2019-05-02T22:06:17.902Z,89.73
2019-05-02T22:08:48.646Z,89.42
2019-05-02T22:11:20.094Z,88.83
2019-05-02T22:13:51.664Z,88.47
2019-05-02T22:16:23.202Z,88.43
2019-05-02T22:18:54.219Z,88.46
2019-05-02T22:21:26.237Z,88.10
2019-05-02T22:24:08.986Z,87.84
2019-05-02T22:26:32.904Z,87.95
2019-05-02T22:29:04.087Z,87.91
2019-05-02T22:31:37.628Z,87.95
2019-05-02T22:34:08.799Z,87.68
2019-05-02T22:36:42.904Z,87.85
2019-05-02T22:39:35.275Z,87.51
2019-05-02T22:42:06.548Z,87.62
2019-05-02T22:44:37.543Z,87.08
2019-05-02T22:47:08.486Z,86.54
2019-05-02T22:49:39.638Z,86.75
2019-05-02T22:52:12.463Z,87.13
2019-05-02T22:54:43.296Z,86.92
2019-05-02T22:57:14.450Z,86.80
2019-05-02T22:59:45.247Z,85.94
2019-05-02T23:02:17.239Z,86.74
2019-05-02T23:04:49.876Z,87.23
2019-05-02T23:07:22.172Z,86.78
2019-05-02T23:09:54.566Z,86.73
2019-05-02T23:12:25.908Z,86.71
2019-05-02T23:14:56.898Z,87.03
2019-05-02T23:17:27.843Z,86.64
2019-05-02T23:19:58.639Z,86.81
2019-05-02T23:22:29.818Z,86.72
2019-05-02T23:25:19.558Z,87.54
2019-05-02T23:27:53.854Z,88.22
2019-05-02T23:30:25.410Z,88.39
2019-05-02T23:32:56.274Z,87.72
2019-05-02T23:35:27.589Z,87.91
2019-05-02T23:37:58.597Z,87.43
2019-05-02T23:40:29.963Z,86.92
2019-05-02T23:43:01.963Z,87.33
2019-05-02T23:45:33.967Z,88.07
2019-05-02T23:48:05.263Z,88.10
2019-05-02T23:50:36.220Z,87.51
2019-05-02T23:53:10.088Z,88.12
2019-05-02T23:55:42.589Z,88.68
2019-05-02T23:58:13.495Z,88.51
